Time;durP1;ratioP1;P1;durP2;ratioP2;P2;SDS_P1;SDS_P2;PMS_P1;PMS_P2;Temp;Humidity;BMP_temperature;BMP_pressure;BME280_temperature;BME280_humidity;BME280_pressure;Samples;Min_cycle;Max_cycle;Signal;HPM_P1;HPM_P2
2023/07/11 04:06:18;;;;;;;4.30;3.47;;;19.00;99.90;;;;;;5112330;23;20495;-69
2023/07/11 04:08:44;;;;;;;3.23;2.53;;;19.00;99.90;;;;;;4975021;28;20390;-60
2023/07/11 04:11:10;;;;;;;2.60;2.40;;;19.10;99.90;;;;;;4974638;28;20176;-65
2023/07/11 04:13:36;;;;;;;2.63;2.50;;;19.20;99.90;;;;;;4968807;28;20187;-66
2023/07/11 04:16:02;;;;;;;2.67;2.43;;;19.20;99.90;;;;;;4949927;28;20201;-67
2023/07/11 04:18:27;;;;;;;3.60;2.97;;;19.20;99.90;;;;;;4955657;29;20398;-66
2023/07/11 04:20:53;;;;;;;3.43;3.10;;;19.30;99.90;;;;;;4955551;28;20201;-66
2023/07/11 04:23:18;;;;;;;4.83;3.30;;;19.30;99.90;;;;;;4955091;28;20176;-66
2023/07/11 04:25:44;;;;;;;2.63;2.43;;;19.40;99.90;;;;;;4937864;29;20604;-67
2023/07/11 04:28:09;;;;;;;2.93;2.73;;;19.50;99.90;;;;;;4955172;29;20176;-65
2023/07/11 04:30:36;;;;;;;3.13;2.93;;;19.60;99.90;;;;;;4955496;29;20180;-68
2023/07/11 04:33:02;;;;;;;3.47;3.07;;;19.60;99.90;;;;;;4955618;29;20193;-66
2023/07/11 04:35:27;;;;;;;3.37;3.00;;;19.70;99.90;;;;;;4935801;29;20981;-68
2023/07/11 04:37:53;;;;;;;3.03;2.73;;;19.80;99.90;;;;;;4955346;29;20173;-66
2023/07/11 04:40:18;;;;;;;3.90;3.00;;;19.90;99.90;;;;;;4955410;29;20177;-67
2023/07/11 04:42:44;;;;;;;2.80;2.60;;;20.10;99.90;;;;;;4938076;29;20172;-66
2023/07/11 04:45:10;;;;;;;3.80;2.90;;;20.20;99.90;;;;;;4954382;29;20208;-66
2023/07/11 04:47:36;;;;;;;3.63;3.33;;;20.30;99.90;;;;;;4955165;28;20220;-65
2023/07/11 04:50:03;;;;;;;3.17;2.87;;;20.40;99.90;;;;;;4955204;28;20470;-66
2023/07/11 04:52:28;;;;;;;2.70;2.50;;;20.50;99.90;;;;;;4955021;29;20494;-65
2023/07/11 04:54:54;;;;;;;3.03;2.83;;;20.60;99.90;;;;;;4937025;29;20471;-66
2023/07/11 04:57:20;;;;;;;3.20;3.00;;;20.80;99.90;;;;;;4954931;28;20192;-68
2023/07/11 04:59:46;;;;;;;3.57;3.00;;;20.90;99.90;;;;;;4954823;28;20173;-68
2023/07/11 05:02:12;;;;;;;3.73;2.70;;;20.90;99.90;;;;;;4955143;29;20387;-68
2023/07/11 05:04:39;;;;;;;3.73;3.50;;;20.90;99.90;;;;;;4954341;29;20347;-66
2023/07/11 05:07:05;;;;;;;3.30;3.10;;;20.90;99.90;;;;;;4954864;28;20275;-66
2023/07/11 05:09:31;;;;;;;3.03;2.83;;;21.00;99.90;;;;;;4954912;29;20412;-66
2023/07/11 05:11:57;;;;;;;2.60;2.37;;;21.10;99.90;;;;;;4955239;29;20460;-66
2023/07/11 05:14:25;;;;;;;2.47;2.27;;;21.20;99.90;;;;;;4937210;29;20207;-66
2023/07/11 05:16:51;;;;;;;3.00;2.73;;;21.40;99.90;;;;;;4955141;28;20462;-66
2023/07/11 05:19:17;;;;;;;2.30;2.17;;;21.60;99.90;;;;;;4946644;29;20494;-66
2023/07/11 05:21:42;;;;;;;2.73;2.53;;;21.70;99.90;;;;;;4941906;29;20197;-65
2023/07/11 05:24:09;;;;;;;3.80;3.50;;;21.80;99.90;;;;;;4938666;29;20288;-65
2023/07/11 05:26:35;;;;;;;2.43;2.23;;;21.90;99.90;;;;;;4958562;29;20177;-66
2023/07/11 05:29:04;;;;;;;2.93;2.73;;;21.90;99.90;;;;;;4958594;29;20475;-65
2023/07/11 05:31:30;;;;;;;3.23;2.97;;;21.90;99.90;;;;;;4958677;28;20384;-65
2023/07/11 05:33:55;;;;;;;1.97;1.87;;;22.00;99.90;;;;;;4958191;29;20468;-65
2023/07/11 05:36:32;;;;;;;3.00;2.80;;;22.00;99.90;;;;;;4958093;29;20402;-65
2023/07/11 05:38:59;;;;;;;3.43;3.10;;;22.00;99.90;;;;;;4958486;29;20616;-65
2023/07/11 05:41:25;;;;;;;3.87;3.57;;;22.10;99.90;;;;;;4958342;29;20417;-65
2023/07/11 05:43:51;;;;;;;3.13;2.93;;;22.20;99.90;;;;;;4957930;28;20462;-65
2023/07/11 05:46:16;;;;;;;2.73;2.53;;;22.20;99.50;;;;;;4957772;29;20791;-65
2023/07/11 05:48:42;;;;;;;2.50;2.30;;;22.30;99.70;;;;;;4958159;28;20172;-65
2023/07/11 05:51:10;;;;;;;3.07;2.50;;;22.40;99.30;;;;;;4940641;29;20179;-65
2023/07/11 05:53:36;;;;;;;2.27;2.10;;;22.60;99.20;;;;;;4957723;29;20187;-66
2023/07/11 05:56:02;;;;;;;2.43;2.23;;;22.80;99.10;;;;;;4957749;29;20448;-65
2023/07/11 05:58:31;;;;;;;3.43;3.13;;;23.00;98.60;;;;;;4958057;28;21005;-64
2023/07/11 06:00:58;;;;;;;2.90;2.70;;;23.20;98.10;;;;;;4957840;28;20508;-65
2023/07/11 06:03:26;;;;;;;3.03;2.73;;;23.50;97.40;;;;;;4957523;28;20404;-64
2023/07/11 06:05:55;;;;;;;3.07;2.67;;;23.70;96.00;;;;;;4957348;29;20464;-64
2023/07/11 06:08:21;;;;;;;2.30;2.10;;;23.70;95.90;;;;;;4940881;29;20403;-65
2023/07/11 06:10:47;;;;;;;3.23;3.03;;;23.80;95.70;;;;;;4957962;29;20447;-65
2023/07/11 06:13:14;;;;;;;2.23;2.13;;;23.90;95.50;;;;;;4957715;29;20448;-65
2023/07/11 06:15:40;;;;;;;3.30;3.00;;;24.00;96.10;;;;;;4957140;28;20196;-65
2023/07/11 06:18:06;;;;;;;3.00;2.80;;;24.10;95.60;;;;;;4957763;29;20397;-64
2023/07/11 06:20:32;;;;;;;2.50;2.30;;;24.20;95.40;;;;;;4957703;29;20405;-65
2023/07/11 06:22:59;;;;;;;3.47;3.17;;;24.20;95.30;;;;;;4957893;28;20240;-64
2023/07/11 06:25:25;;;;;;;3.23;2.40;;;24.30;95.30;;;;;;4956619;29;20706;-65
2023/07/11 06:27:51;;;;;;;2.60;2.30;;;24.50;94.40;;;;;;4957609;28;20379;-65
2023/07/11 06:30:16;;;;;;;3.00;2.80;;;24.60;94.40;;;;;;4957599;29;20953;-65
2023/07/11 06:32:42;;;;;;;3.03;2.70;;;24.80;94.20;;;;;;4957654;29;20169;-64
2023/07/11 06:35:08;;;;;;;4.30;2.67;;;25.10;93.80;;;;;;4956645;28;20200;-64
2023/07/11 06:37:34;;;;;;;3.43;3.23;;;25.20;92.80;;;;;;4957409;29;20264;-63
2023/07/11 06:39:59;;;;;;;5.63;2.87;;;25.30;92.40;;;;;;4957376;29;20176;-64
2023/07/11 06:42:25;;;;;;;2.60;2.40;;;25.40;92.10;;;;;;4954894;29;20919;-64
2023/07/11 06:44:51;;;;;;;3.03;2.80;;;25.50;91.80;;;;;;4956442;28;20231;-63
2023/07/11 06:47:16;;;;;;;6.00;3.30;;;25.50;91.60;;;;;;4956106;29;20595;-64
2023/07/11 06:49:43;;;;;;;2.60;2.40;;;25.60;91.20;;;;;;4953175;29;20181;-63
2023/07/11 06:52:09;;;;;;;2.50;2.30;;;25.60;90.90;;;;;;4937972;29;20189;-63
2023/07/11 06:54:35;;;;;;;3.47;2.50;;;25.60;90.80;;;;;;4920668;29;20516;-63
2023/07/11 06:57:00;;;;;;;2.53;2.37;;;25.70;90.70;;;;;;4953750;29;20407;-64
2023/07/11 06:59:26;;;;;;;3.00;2.70;;;25.70;90.40;;;;;;4957207;28;20192;-63
2023/07/11 07:01:52;;;;;;;2.60;2.40;;;25.90;90.20;;;;;;4957091;28;20211;-64
2023/07/11 07:04:17;;;;;;;2.30;2.20;;;26.10;88.80;;;;;;4956534;28;20559;-64
2023/07/11 07:06:44;;;;;;;2.50;2.30;;;26.20;89.50;;;;;;4956598;28;20203;-63
2023/07/11 07:09:11;;;;;;;2.70;2.50;;;26.40;89.20;;;;;;4956801;29;20205;-63
2023/07/11 07:11:38;;;;;;;2.47;2.27;;;26.60;87.10;;;;;;4956695;29;20399;-63
2023/07/11 07:14:09;;;;;;;2.60;2.40;;;26.80;86.30;;;;;;4956381;28;20408;-62
2023/07/11 07:16:38;;;;;;;2.83;2.60;;;26.90;85.00;;;;;;4956293;28;20890;-63
2023/07/11 07:19:05;;;;;;;4.53;2.93;;;27.00;84.60;;;;;;4955884;29;20857;-62
2023/07/11 07:21:32;;;;;;;2.70;2.50;;;27.10;84.40;;;;;;4956575;29;20410;-63
2023/07/11 07:23:58;;;;;;;2.50;2.27;;;27.20;84.10;;;;;;4956280;29;20771;-62
2023/07/11 07:26:24;;;;;;;3.90;3.53;;;27.30;83.80;;;;;;4938744;29;20546;-63
2023/07/11 07:28:50;;;;;;;2.73;2.53;;;27.50;83.80;;;;;;4956500;28;20385;-63
2023/07/11 07:31:15;;;;;;;1.83;1.73;;;27.80;82.20;;;;;;4956393;29;20235;-61
2023/07/11 07:33:41;;;;;;;2.70;2.50;;;28.30;80.80;;;;;;4955864;29;20184;-63
2023/07/11 07:36:09;;;;;;;2.70;2.50;;;28.80;79.10;;;;;;4956469;28;20197;-63
2023/07/11 07:38:35;;;;;;;3.73;3.30;;;29.30;77.60;;;;;;4939170;29;20447;-64
2023/07/11 07:41:06;;;;;;;3.60;2.97;;;29.80;75.30;;;;;;4956384;28;20421;-63
2023/07/11 07:43:33;;;;;;;3.20;2.53;;;30.50;73.40;;;;;;4955198;28;20267;-63
2023/07/11 07:46:00;;;;;;;2.93;2.20;;;31.20;71.40;;;;;;4955257;28;20535;-64
2023/07/11 07:48:26;;;;;;;2.60;2.37;;;32.20;68.80;;;;;;4955893;29;20587;-63
2023/07/11 07:50:53;;;;;;;3.70;3.00;;;33.20;66.90;;;;;;4955921;29;20460;-64
2023/07/11 07:53:19;;;;;;;3.50;3.20;;;34.20;62.00;;;;;;4955611;29;20551;-70
2023/07/11 07:55:45;;;;;;;3.77;3.47;;;35.10;59.40;;;;;;4955888;28;20436;-65
2023/07/11 07:58:13;;;;;;;3.30;2.97;;;35.50;58.90;;;;;;4955877;28;20177;-71
2023/07/11 08:00:40;;;;;;;3.43;2.93;;;36.10;58.10;;;;;;4953514;28;20428;-70
2023/07/11 08:03:05;;;;;;;3.00;2.80;;;36.80;57.40;;;;;;4944747;29;20485;-67
2023/07/11 08:05:31;;;;;;;3.40;3.20;;;37.80;55.90;;;;;;4936067;29;20959;-68
2023/07/11 08:07:57;;;;;;;3.07;2.87;;;38.90;53.70;;;;;;4937026;29;20181;-70
2023/07/11 08:10:22;;;;;;;3.43;3.20;;;39.60;52.30;;;;;;4955386;29;20188;-68
2023/07/11 08:12:48;;;;;;;3.40;3.20;;;39.80;50.90;;;;;;4955544;28;20181;-66
2023/07/11 08:15:13;;;;;;;4.10;3.70;;;39.90;51.20;;;;;;4955374;29;20588;-70
2023/07/11 08:17:45;;;;;;;3.07;2.90;;;40.30;49.90;;;;;;4955301;29;20240;-68
2023/07/11 08:20:11;;;;;;;3.03;2.83;;;40.60;49.60;;;;;;4955643;29;20185;-68
2023/07/11 08:22:37;;;;;;;3.63;3.43;;;41.20;49.20;;;;;;4954791;29;20922;-71
2023/07/11 08:25:02;;;;;;;4.10;3.80;;;41.60;48.80;;;;;;4954960;29;20244;-68
2023/07/11 08:27:28;;;;;;;4.63;4.23;;;42.20;47.90;;;;;;4955323;29;20177;-69
2023/07/11 08:29:54;;;;;;;4.20;3.90;;;42.70;46.70;;;;;;4955807;28;20184;-68
2023/07/11 08:32:19;;;;;;;3.37;3.17;;;42.80;46.10;;;;;;4955589;28;20224;-71
2023/07/11 08:34:45;;;;;;;3.20;3.00;;;42.40;46.00;;;;;;4937869;29;20197;-67
2023/07/11 08:37:12;;;;;;;3.00;2.80;;;42.20;46.70;;;;;;4955085;28;20193;-69
2023/07/11 08:39:38;;;;;;;4.10;3.80;;;42.30;46.70;;;;;;4955315;29;20271;-67
2023/07/11 08:42:14;;;;;;;4.07;3.77;;;42.30;46.30;;;;;;4955374;29;20444;-66
2023/07/11 08:44:52;;;;;;;3.73;3.53;;;42.60;46.30;;;;;;4955382;29;20200;-69
2023/07/11 08:47:20;;;;;;;3.70;3.50;;;42.90;45.50;;;;;;4955075;28;20428;-66
2023/07/11 08:50:18;;;;;;;4.00;3.70;;;42.80;45.40;;;;;;4937178;28;20494;-68
2023/07/11 08:52:46;;;;;;;3.70;3.50;;;42.50;45.50;;;;;;4938816;28;20421;-70
2023/07/11 08:55:31;;;;;;;7.33;4.10;;;42.40;46.00;;;;;;4954793;29;20479;-69
2023/07/11 08:58:38;;;;;;;3.30;3.10;;;42.70;45.90;;;;;;4940523;29;20483;-72
2023/07/11 09:01:24;;;;;;;3.33;3.17;;;43.40;45.60;;;;;;4881422;29;20835;-67
2023/07/11 09:03:50;;;;;;;4.00;3.80;;;44.10;44.70;;;;;;4877070;29;20504;-66
2023/07/11 09:06:20;;;;;;;3.60;3.40;;;44.20;44.10;;;;;;4867288;29;20871;-67
2023/07/11 09:08:47;;;;;;;4.13;3.93;;;44.30;43.60;;;;;;4869805;29;20779;-70
2023/07/11 09:11:14;;;;;;;3.73;3.53;;;44.80;43.40;;;;;;4863417;29;20863;-67
2023/07/11 09:13:46;;;;;;;3.90;3.70;;;44.80;43.60;;;;;;4881497;29;20450;-67
2023/07/11 09:16:38;;;;;;;4.00;3.70;;;45.20;43.20;;;;;;4881663;29;20443;-66
2023/07/11 09:19:35;;;;;;;4.60;4.40;;;45.50;43.00;;;;;;4871855;29;20845;-68
2023/07/11 09:22:14;;;;;;;4.10;3.90;;;45.50;42.40;;;;;;4872048;29;20431;-64
2023/07/11 09:25:10;;;;;;;4.53;4.23;;;45.60;42.50;;;;;;4876223;29;20909;-69
2023/07/11 09:28:13;;;;;;;4.97;4.67;;;45.80;43.50;;;;;;4880491;29;21044;-66
2023/07/11 09:30:55;;;;;;;4.70;4.40;;;45.60;43.80;;;;;;4863406;29;20438;-67
2023/07/11 09:33:23;;;;;;;4.30;4.10;;;45.00;44.40;;;;;;4953358;29;20512;-68
2023/07/11 09:35:51;;;;;;;5.50;5.20;;;44.80;45.60;;;;;;4958381;28;20463;-74
2023/07/11 09:38:30;;;;;;;4.70;4.40;;;44.80;46.10;;;;;;4958671;29;20818;-74
2023/07/11 09:41:30;;;;;;;5.07;4.77;;;44.70;46.30;;;;;;4957349;28;20420;-67
2023/07/11 09:43:56;;;;;;;4.20;3.90;;;44.80;46.10;;;;;;4938987;29;20764;-67
2023/07/11 09:46:24;;;;;;;4.57;4.37;;;45.00;45.90;;;;;;4940852;29;20431;-67
2023/07/11 09:48:57;;;;;;;4.13;3.90;;;44.90;45.60;;;;;;4955856;28;20204;-72
2023/07/11 09:51:50;;;;;;;4.20;4.00;;;45.00;44.90;;;;;;4957844;28;20767;-67
2023/07/11 09:54:21;;;;;;;4.83;4.57;;;45.40;44.50;;;;;;4952974;29;20547;-67
2023/07/11 09:56:49;;;;;;;3.90;3.70;;;45.40;44.20;;;;;;4948090;29;20915;-72
2023/07/11 09:59:16;;;;;;;4.03;3.83;;;44.90;44.50;;;;;;4938868;29;20409;-73
2023/07/11 10:01:42;;;;;;;4.70;4.30;;;44.80;44.20;;;;;;4954238;29;20799;-73
2023/07/11 10:04:23;;;;;;;4.97;4.73;;;45.00;44.00;;;;;;4956935;29;20471;-72
2023/07/11 10:06:55;;;;;;;4.70;4.40;;;45.60;43.60;;;;;;4957974;29;20192;-71
2023/07/11 10:09:32;;;;;;;4.30;4.10;;;45.20;43.10;;;;;;4957279;28;20401;-66
2023/07/11 10:11:59;;;;;;;5.00;4.50;;;44.80;43.80;;;;;;4957935;29;20422;-74
2023/07/11 10:14:35;;;;;;;5.17;4.87;;;44.50;44.10;;;;;;4957403;28;20818;-68
2023/07/11 10:17:22;;;;;;;4.80;4.50;;;44.60;44.30;;;;;;4942920;29;20424;-71
2023/07/11 10:20:11;;;;;;;4.90;4.70;;;44.60;44.10;;;;;;4957466;29;20451;-68
2023/07/11 10:22:37;;;;;;;4.10;3.90;;;44.50;44.10;;;;;;4957885;28;20408;-65
2023/07/11 10:25:20;;;;;;;4.47;4.17;;;44.30;44.10;;;;;;4957097;28;21004;-71
2023/07/11 10:27:52;;;;;;;4.97;4.67;;;44.20;44.10;;;;;;4957722;29;20190;-65
2023/07/11 10:30:25;;;;;;;4.90;4.60;;;43.90;44.40;;;;;;4957228;28;20467;-72
2023/07/11 10:33:12;;;;;;;5.07;4.77;;;43.40;45.50;;;;;;4957875;29;20419;-68
2023/07/11 10:35:39;;;;;;;4.40;4.10;;;43.40;44.90;;;;;;4957451;29;20467;-73
2023/07/11 10:38:15;;;;;;;4.40;4.10;;;43.40;44.80;;;;;;4939996;29;20486;-72
2023/07/11 10:40:45;;;;;;;4.37;4.17;;;43.20;45.70;;;;;;4957704;28;20396;-69
2023/07/11 10:43:23;;;;;;;5.23;4.83;;;43.40;46.00;;;;;;4957318;28;20771;-69
2023/07/11 10:45:51;;;;;;;4.60;4.23;;;43.70;44.80;;;;;;4957172;29;20474;-72
2023/07/11 10:48:25;;;;;;;4.40;4.20;;;44.00;44.70;;;;;;4957474;29;20451;-66
2023/07/11 10:51:17;;;;;;;5.00;4.70;;;44.40;44.60;;;;;;4957418;29;20396;-67
2023/07/11 10:54:03;;;;;;;4.83;4.53;;;44.60;44.10;;;;;;4948155;29;20511;-67
2023/07/11 10:56:46;;;;;;;4.93;4.63;;;44.70;44.20;;;;;;4957337;29;20887;-67
2023/07/11 10:59:13;;;;;;;4.80;4.43;;;44.70;43.50;;;;;;4956843;28;20420;-73
2023/07/11 11:02:14;;;;;;;4.20;4.00;;;44.00;44.00;;;;;;4939771;29;20907;-73
2023/07/11 11:05:07;;;;;;;4.47;4.20;;;43.00;44.80;;;;;;4956554;28;20435;-73
2023/07/11 11:07:40;;;;;;;4.97;4.57;;;42.30;46.50;;;;;;4954628;28;20452;-74
2023/07/11 11:10:26;;;;;;;4.80;4.50;;;42.30;46.00;;;;;;4956407;28;20443;-74
2023/07/11 11:13:17;;;;;;;4.23;4.03;;;42.50;45.60;;;;;;4954441;28;20420;-71
2023/07/11 11:16:00;;;;;;;4.77;4.10;;;42.60;45.20;;;;;;4946538;29;20464;-69
2023/07/11 11:18:40;;;;;;;5.13;4.73;;;42.20;45.20;;;;;;4956674;28;20521;-68
2023/07/11 11:21:34;;;;;;;5.00;4.70;;;41.70;45.60;;;;;;4955772;28;20416;-68
2023/07/11 11:24:37;;;;;;;4.80;4.40;;;41.20;46.00;;;;;;4954660;29;20440;-64
2023/07/11 11:27:27;;;;;;;4.40;4.10;;;40.50;46.90;;;;;;4956776;29;20945;-64
2023/07/11 11:29:59;;;;;;;4.87;4.47;;;39.70;48.50;;;;;;4953137;29;20424;-64
2023/07/11 11:33:08;;;;;;;4.97;4.57;;;39.10;48.70;;;;;;4956243;29;20436;-67
2023/07/11 11:35:50;;;;;;;3.70;3.40;;;38.70;49.30;;;;;;4883024;29;20475;-63
2023/07/11 11:38:26;;;;;;;5.13;4.67;;;38.50;49.90;;;;;;4953977;29;20450;-66
2023/07/11 11:40:57;;;;;;;4.93;4.53;;;38.30;51.30;;;;;;4956324;29;20416;-64
2023/07/11 11:43:25;;;;;;;4.87;4.50;;;38.20;51.40;;;;;;4955714;28;20468;-68
2023/07/11 11:45:51;;;;;;;4.47;4.10;;;38.20;50.80;;;;;;4956081;28;20437;-65
2023/07/11 11:48:21;;;;;;;5.17;4.77;;;38.00;50.80;;;;;;4954427;29;20456;-68
2023/07/11 11:50:48;;;;;;;4.33;4.03;;;37.80;51.00;;;;;;4941280;29;20443;-69
2023/07/11 11:53:32;;;;;;;4.60;4.30;;;37.60;51.30;;;;;;4938633;29;20432;-67
2023/07/11 11:56:02;;;;;;;5.00;4.60;;;37.50;51.80;;;;;;4956071;29;20488;-67
2023/07/11 11:58:30;;;;;;;5.27;4.87;;;37.40;52.20;;;;;;4938970;29;20416;-67
2023/07/11 12:00:58;;;;;;;5.33;4.83;;;37.30;52.50;;;;;;4955632;29;20513;-68
2023/07/11 12:03:32;;;;;;;4.97;4.57;;;37.20;51.90;;;;;;4952776;29;20484;-68
2023/07/11 12:06:19;;;;;;;5.07;4.67;;;37.20;52.70;;;;;;4939823;29;20459;-67
2023/07/11 12:08:45;;;;;;;5.50;5.10;;;37.20;52.80;;;;;;4955236;28;21001;-65
2023/07/11 12:11:10;;;;;;;4.37;4.07;;;37.30;53.30;;;;;;4955908;28;20420;-65
2023/07/11 12:13:42;;;;;;;5.37;4.80;;;37.50;52.40;;;;;;4947202;29;20440;-66
2023/07/11 12:16:32;;;;;;;5.03;4.63;;;37.50;52.40;;;;;;4954943;29;20192;-65
2023/07/11 12:19:00;;;;;;;5.30;4.83;;;37.70;52.50;;;;;;4955455;28;20413;-66
2023/07/11 12:21:39;;;;;;;3.90;3.60;;;37.70;52.70;;;;;;4950990;29;20420;-67
2023/07/11 12:24:24;;;;;;;5.40;4.90;;;37.70;52.10;;;;;;4954575;29;20464;-67
2023/07/11 12:26:53;;;;;;;5.10;4.60;;;37.40;52.70;;;;;;4955538;28;20427;-67
2023/07/11 12:29:36;;;;;;;5.10;4.63;;;37.10;52.90;;;;;;4955512;29;20445;-66
2023/07/11 12:32:33;;;;;;;4.93;4.53;;;36.70;53.20;;;;;;4937312;29;20509;-67
2023/07/11 12:35:04;;;;;;;5.20;4.77;;;36.50;53.70;;;;;;4942537;29;20468;-66
2023/07/11 12:38:01;;;;;;;6.13;5.07;;;36.20;53.70;;;;;;4954911;29;20428;-67
2023/07/11 12:40:38;;;;;;;4.57;4.17;;;36.20;53.80;;;;;;4937410;29;20424;-68
2023/07/11 12:43:29;;;;;;;5.80;5.30;;;36.20;54.00;;;;;;4954931;28;20431;-67
2023/07/11 12:46:00;;;;;;;5.47;4.97;;;36.10;53.80;;;;;;4955028;29;20425;-66
2023/07/11 12:48:38;;;;;;;4.67;4.30;;;36.20;54.00;;;;;;4954541;29;20484;-63
2023/07/11 12:51:20;;;;;;;5.23;4.50;;;36.10;54.30;;;;;;4955029;29;20410;-68
2023/07/11 12:53:46;;;;;;;5.00;4.60;;;36.20;55.00;;;;;;4954564;29;20516;-65
2023/07/11 12:56:13;;;;;;;5.13;4.60;;;36.10;54.50;;;;;;4954987;29;20885;-65
2023/07/11 12:58:40;;;;;;;4.90;4.50;;;36.20;54.10;;;;;;4955133;29;20240;-65
2023/07/11 13:01:13;;;;;;;5.10;4.60;;;36.20;54.10;;;;;;4955235;29;20883;-68
2023/07/11 13:03:39;;;;;;;4.43;4.03;;;36.30;54.10;;;;;;4954650;29;20409;-65
2023/07/11 13:06:15;;;;;;;4.97;4.57;;;36.40;53.50;;;;;;4954891;29;20427;-70
2023/07/11 13:08:40;;;;;;;5.17;4.70;;;36.50;53.60;;;;;;4955234;28;20433;-66
2023/07/11 13:11:06;;;;;;;4.13;3.83;;;36.70;53.00;;;;;;4955168;28;20396;-69
2023/07/11 13:13:33;;;;;;;4.80;4.30;;;36.70;53.10;;;;;;4954844;28;20176;-64
2023/07/11 13:16:05;;;;;;;4.70;4.30;;;37.00;52.50;;;;;;4954605;28;20252;-68
2023/07/11 13:18:42;;;;;;;3.80;3.50;;;36.90;52.20;;;;;;4954529;28;20399;-65
2023/07/11 13:21:09;;;;;;;4.67;4.30;;;36.90;52.70;;;;;;4955091;29;20811;-71
2023/07/11 13:23:38;;;;;;;4.43;4.03;;;36.70;52.70;;;;;;4954802;29;20398;-65
2023/07/11 13:26:19;;;;;;;4.33;4.03;;;36.60;53.30;;;;;;4954865;29;20475;-69
2023/07/11 13:28:55;;;;;;;4.67;4.27;;;36.60;52.90;;;;;;4954801;29;20416;-66
2023/07/11 13:31:23;;;;;;;4.43;4.03;;;36.70;53.20;;;;;;4954570;29;20980;-69
2023/07/11 13:34:01;;;;;;;4.57;4.17;;;36.70;52.40;;;;;;4954260;29;20925;-65
2023/07/11 13:36:29;;;;;;;4.77;4.30;;;36.70;52.60;;;;;;4954717;29;20387;-68
2023/07/11 13:38:59;;;;;;;4.90;4.47;;;36.70;52.50;;;;;;4954815;28;20865;-65
2023/07/11 13:41:31;;;;;;;5.27;4.87;;;36.80;53.10;;;;;;4954716;28;20932;-66
2023/07/11 13:44:01;;;;;;;5.23;4.73;;;36.80;53.40;;;;;;4955399;28;20503;-67
2023/07/11 13:46:30;;;;;;;5.10;4.50;;;36.80;53.00;;;;;;4957891;29;20533;-69
2023/07/11 13:49:07;;;;;;;4.47;4.07;;;36.80;52.60;;;;;;4957983;28;20379;-65
2023/07/11 13:51:35;;;;;;;4.63;4.33;;;36.60;52.70;;;;;;4958046;29;20889;-68
2023/07/11 13:54:14;;;;;;;4.80;4.40;;;36.40;53.00;;;;;;4957514;29;20771;-68
2023/07/11 13:56:39;;;;;;;4.67;4.30;;;36.20;53.70;;;;;;4958440;29;20799;-65
2023/07/11 13:59:05;;;;;;;4.90;4.50;;;36.10;53.80;;;;;;4958076;29;20401;-65
2023/07/11 14:01:34;;;;;;;4.87;4.10;;;36.00;54.30;;;;;;4957614;29;20517;-67
2023/07/11 14:04:00;;;;;;;4.93;4.53;;;35.90;54.20;;;;;;4957242;28;20207;-67
2023/07/11 14:06:26;;;;;;;5.17;4.67;;;35.90;54.40;;;;;;4957584;29;20758;-66
2023/07/11 14:08:52;;;;;;;4.33;3.93;;;35.90;54.30;;;;;;4957984;29;20181;-66
2023/07/11 14:11:27;;;;;;;4.03;3.67;;;35.70;54.00;;;;;;4958090;29;20803;-68
2023/07/11 14:13:53;;;;;;;5.10;4.70;;;35.60;54.40;;;;;;4957356;29;20481;-65
2023/07/11 14:16:18;;;;;;;4.93;4.53;;;35.50;53.90;;;;;;4957293;29;20452;-66
2023/07/11 14:18:44;;;;;;;7.00;4.53;;;35.40;54.70;;;;;;4958016;28;20408;-66
2023/07/11 14:21:15;;;;;;;4.97;4.57;;;35.40;54.30;;;;;;4957674;28;20204;-67
2023/07/11 14:23:41;;;;;;;5.70;4.00;;;35.40;54.00;;;;;;4957303;28;20165;-66
2023/07/11 14:26:06;;;;;;;4.87;4.37;;;35.40;54.00;;;;;;4957370;29;20407;-68
2023/07/11 14:28:32;;;;;;;4.90;4.47;;;35.30;54.20;;;;;;4957804;29;20205;-66
2023/07/11 14:31:00;;;;;;;4.70;4.30;;;35.30;54.20;;;;;;4957349;29;20184;-69
2023/07/11 14:33:33;;;;;;;4.80;4.40;;;35.30;54.00;;;;;;4957018;29;20488;-65
2023/07/11 14:35:59;;;;;;;6.90;4.87;;;35.30;53.70;;;;;;4940370;29;20965;-69
2023/07/11 14:38:25;;;;;;;4.10;3.80;;;35.30;54.00;;;;;;4957357;29;20412;-66
2023/07/11 14:40:51;;;;;;;4.00;3.80;;;35.30;54.50;;;;;;4957445;29;20379;-69
2023/07/11 14:43:21;;;;;;;4.50;4.17;;;35.40;54.40;;;;;;4957040;29;20204;-67
2023/07/11 14:45:47;;;;;;;5.30;4.90;;;35.40;54.00;;;;;;4956881;29;20537;-66
2023/07/11 14:48:17;;;;;;;5.00;4.60;;;35.40;54.00;;;;;;4957302;28;20384;-68
2023/07/11 14:50:44;;;;;;;5.03;4.60;;;35.40;54.10;;;;;;4957137;28;20937;-67
2023/07/11 14:53:33;;;;;;;4.60;4.30;;;35.30;54.10;;;;;;4957226;28;20387;-66
2023/07/11 14:56:00;;;;;;;5.03;4.50;;;35.20;54.00;;;;;;4956558;28;20468;-69
2023/07/11 14:58:26;;;;;;;4.63;4.23;;;35.20;54.30;;;;;;4956628;28;20380;-66
2023/07/11 15:00:51;;;;;;;4.97;4.57;;;35.20;54.30;;;;;;4956946;29;20426;-65
2023/07/11 15:03:20;;;;;;;4.97;4.57;;;35.20;54.40;;;;;;4956833;29;20177;-66
2023/07/11 15:05:46;;;;;;;7.50;5.00;;;35.20;55.00;;;;;;4956752;29;20205;-69
2023/07/11 15:08:30;;;;;;;5.33;4.87;;;35.30;54.60;;;;;;4957187;29;20390;-65
2023/07/11 15:11:15;;;;;;;4.43;4.03;;;35.40;54.20;;;;;;4957011;29;20173;-68
2023/07/11 15:13:40;;;;;;;4.70;4.30;;;35.30;54.60;;;;;;4956192;29;20483;-68
2023/07/11 15:16:09;;;;;;;4.97;4.60;;;35.20;54.90;;;;;;4956433;28;20993;-69
2023/07/11 15:18:34;;;;;;;4.40;4.00;;;35.10;54.90;;;;;;4956638;28;20184;-65
2023/07/11 15:21:00;;;;;;;4.90;4.50;;;35.10;55.40;;;;;;4956552;29;20383;-68
2023/07/11 15:23:26;;;;;;;4.43;4.13;;;35.00;55.60;;;;;;4939271;29;20204;-65
2023/07/11 15:25:51;;;;;;;5.10;4.60;;;34.90;56.10;;;;;;4956342;28;20193;-69
2023/07/11 15:28:22;;;;;;;5.17;4.73;;;34.90;56.30;;;;;;4956172;29;20181;-65
2023/07/11 15:30:50;;;;;;;5.10;4.60;;;35.00;55.90;;;;;;4956444;29;20583;-65
2023/07/11 15:33:29;;;;;;;5.27;4.77;;;35.10;56.10;;;;;;4956189;28;20499;-67
2023/07/11 15:35:57;;;;;;;4.80;4.40;;;35.20;56.20;;;;;;4955981;28;20427;-65
2023/07/11 15:38:22;;;;;;;4.87;4.47;;;35.20;56.20;;;;;;4956749;29;20384;-66
2023/07/11 15:40:50;;;;;;;5.43;4.60;;;35.30;56.50;;;;;;4956075;28;20874;-68
2023/07/11 15:43:21;;;;;;;4.87;4.37;;;35.40;56.00;;;;;;4955558;29;20187;-68
2023/07/11 15:45:46;;;;;;;4.93;4.47;;;35.40;55.70;;;;;;4956065;29;20422;-69
2023/07/11 15:48:12;;;;;;;4.80;4.40;;;35.40;55.50;;;;;;4956191;29;20388;-66
2023/07/11 15:50:37;;;;;;;4.70;4.30;;;35.40;54.80;;;;;;4956153;29;20172;-68
2023/07/11 15:53:03;;;;;;;5.07;4.77;;;35.40;54.60;;;;;;4956390;29;20184;-69
2023/07/11 15:55:31;;;;;;;5.43;5.03;;;35.30;55.10;;;;;;4955083;28;20237;-66
2023/07/11 15:57:57;;;;;;;5.83;5.27;;;35.20;55.60;;;;;;4955885;28;20532;-69
2023/07/11 16:00:26;;;;;;;4.33;3.93;;;35.20;55.80;;;;;;4955980;28;20509;-65
2023/07/11 16:02:52;;;;;;;5.07;4.40;;;35.10;55.20;;;;;;4956066;29;20169;-69
2023/07/11 16:05:19;;;;;;;4.70;4.30;;;35.00;55.20;;;;;;4955262;29;20512;-65
2023/07/11 16:07:46;;;;;;;5.57;4.97;;;34.90;55.60;;;;;;4955541;28;20412;-70
2023/07/11 16:10:17;;;;;;;5.03;4.63;;;34.70;55.90;;;;;;4955855;29;20435;-66
2023/07/11 16:12:44;;;;;;;5.10;4.60;;;34.60;56.20;;;;;;4936596;29;20389;-71
2023/07/11 16:15:11;;;;;;;5.23;4.83;;;34.40;56.70;;;;;;4951247;29;20431;-66
2023/07/11 16:17:37;;;;;;;5.47;4.97;;;34.20;56.40;;;;;;4955616;29;20924;-66
2023/07/11 16:20:24;;;;;;;5.07;4.57;;;34.10;57.00;;;;;;4955006;29;20434;-65
2023/07/11 16:22:50;;;;;;;4.60;4.27;;;34.00;57.30;;;;;;4955216;28;20477;-70
2023/07/11 16:25:17;;;;;;;5.93;4.47;;;33.90;56.70;;;;;;4954942;28;20791;-66
2023/07/11 16:27:50;;;;;;;4.93;4.43;;;33.80;56.80;;;;;;4954750;29;20410;-70
2023/07/11 16:30:24;;;;;;;4.70;4.37;;;33.80;57.30;;;;;;4955383;28;20415;-66
2023/07/11 16:32:50;;;;;;;5.40;4.90;;;33.80;57.50;;;;;;4955660;29;20383;-67
2023/07/11 16:35:18;;;;;;;6.50;5.50;;;33.80;57.50;;;;;;4954805;28;20423;-67
2023/07/11 16:37:46;;;;;;;4.60;4.20;;;33.70;57.60;;;;;;4955325;29;20419;-70
2023/07/11 16:40:19;;;;;;;4.87;4.47;;;33.70;57.90;;;;;;4955210;29;20408;-66
2023/07/11 16:42:45;;;;;;;5.20;4.70;;;33.60;57.60;;;;;;4954371;28;20402;-68
2023/07/11 16:45:19;;;;;;;5.80;5.30;;;33.50;57.70;;;;;;4954496;29;20917;-66
2023/07/11 16:47:48;;;;;;;4.70;4.30;;;33.50;57.90;;;;;;4955398;28;20383;-70
2023/07/11 16:50:29;;;;;;;5.37;4.87;;;33.40;58.30;;;;;;4955221;28;20428;-66
2023/07/11 16:52:58;;;;;;;5.07;4.67;;;33.40;57.80;;;;;;4955067;29;20387;-66
2023/07/11 16:55:25;;;;;;;4.27;3.97;;;33.30;57.70;;;;;;4954651;28;20464;-66
2023/07/11 16:57:51;;;;;;;4.73;4.27;;;33.20;57.80;;;;;;4954959;29;20768;-67
2023/07/11 17:00:19;;;;;;;5.83;5.23;;;33.20;57.80;;;;;;4955294;29;20383;-68
2023/07/11 17:02:46;;;;;;;5.60;5.13;;;33.20;57.80;;;;;;4937843;29;20890;-68
2023/07/11 17:05:12;;;;;;;5.13;4.73;;;33.10;57.80;;;;;;4954684;29;20441;-68
2023/07/11 17:07:39;;;;;;;4.63;4.23;;;33.10;57.90;;;;;;4954880;29;20917;-71
2023/07/11 17:10:09;;;;;;;6.20;4.87;;;33.10;57.80;;;;;;4954763;29;20391;-68
2023/07/11 17:12:35;;;;;;;4.80;4.33;;;33.00;58.00;;;;;;4945087;29;20423;-69